Time;durP1;ratioP1;P1;durP2;ratioP2;P2;SDS_P1;SDS_P2;PMS_P1;PMS_P2;Temp;Humidity;BMP_temperature;BMP_pressure;BME280_temperature;BME280_humidity;BME280_pressure;Samples;Min_cycle;Max_cycle;Signal;HPM_P1;HPM_P2
2021/08/12 06:33:39;;;;;;;11.98;8.40;;;;;;;;;;143788;566;46010;-51
2021/08/12 06:36:07;;;;;;;11.27;7.90;;;;;;;;;;143737;586;46025;-51
2021/08/12 06:38:34;;;;;;;16.27;8.70;;;;;;;;;;143732;602;47023;-50
2021/08/12 06:41:01;;;;;;;15.63;8.80;;;;;;;;;;143733;569;46010;-51
2021/08/12 06:43:28;;;;;;;12.48;8.40;;;;;;;;;;143735;587;45021;-51
2021/08/12 06:45:56;;;;;;;13.10;9.13;;;;;;;;;;143738;577;46010;-51
2021/08/12 06:48:23;;;;;;;15.23;8.80;;;;;;;;;;143732;670;47022;-52
2021/08/12 06:50:50;;;;;;;16.55;8.93;;;;;;;;;;143734;576;46010;-51
2021/08/12 06:53:17;;;;;;;17.80;9.10;;;;;;;;;;143734;586;45913;-51
2021/08/12 06:55:44;;;;;;;13.05;8.68;;;;;;;;;;143737;571;46010;-51
2021/08/12 06:58:11;;;;;;;14.80;9.00;;;;;;;;;;143732;569;47022;-50
2021/08/12 07:00:38;;;;;;;19.65;9.35;;;;;;;;;;143732;645;47010;-51
2021/08/12 07:03:05;;;;;;;12.52;9.20;;;;;;;;;;143733;565;45887;-50
2021/08/12 07:05:32;;;;;;;16.98;8.60;;;;;;;;;;143738;577;46020;-51
2021/08/12 07:08:00;;;;;;;17.73;9.40;;;;;;;;;;143733;638;47021;-51
2021/08/12 07:10:28;;;;;;;17.05;8.73;;;;;;;;;;143734;594;46010;-50
2021/08/12 07:12:55;;;;;;;15.73;8.98;;;;;;;;;;143735;586;45021;-52
2021/08/12 07:15:22;;;;;;;14.65;8.13;;;;;;;;;;143738;607;46010;-51
2021/08/12 07:17:49;;;;;;;14.00;8.60;;;;;;;;;;143732;590;47022;-51
2021/08/12 07:20:16;;;;;;;15.88;9.50;;;;;;;;;;143733;602;46011;-51
2021/08/12 07:22:43;;;;;;;12.65;7.78;;;;;;;;;;143732;632;46912;-51
2021/08/12 07:25:10;;;;;;;14.40;8.35;;;;;;;;;;143738;599;46020;-50
2021/08/12 07:27:37;;;;;;;17.02;8.52;;;;;;;;;;143731;577;47022;-50
2021/08/12 07:30:06;;;;;;;17.35;10.25;;;;;;;;;;143731;605;47010;-51
2021/08/12 07:32:33;;;;;;;11.93;8.15;;;;;;;;;;143736;614;46012;-51
2021/08/12 07:35:00;;;;;;;22.73;9.18;;;;;;;;;;143738;641;46020;-51
2021/08/12 07:37:27;;;;;;;13.50;8.25;;;;;;;;;;143731;632;47021;-51
2021/08/12 07:39:55;;;;;;;14.07;8.27;;;;;;;;;;143735;590;46010;-51
2021/08/12 07:42:22;;;;;;;13.52;8.20;;;;;;;;;;143733;575;45020;-52
2021/08/12 07:44:49;;;;;;;13.62;8.48;;;;;;;;;;143738;566;46010;-51
2021/08/12 07:47:15;;;;;;;16.70;8.27;;;;;;;;;;143731;578;47022;-51
2021/08/12 07:49:42;;;;;;;14.93;7.95;;;;;;;;;;143734;622;46010;-51
2021/08/12 07:52:09;;;;;;;14.38;7.45;;;;;;;;;;143733;629;45913;-51
2021/08/12 07:54:37;;;;;;;13.32;7.90;;;;;;;;;;143737;687;46010;-51
2021/08/12 07:57:06;;;;;;;12.80;7.75;;;;;;;;;;143733;571;47020;-51
2021/08/12 07:59:33;;;;;;;11.57;7.55;;;;;;;;;;143734;564;46010;-51
2021/08/12 08:02:00;;;;;;;15.32;6.87;;;;;;;;;;143735;569;45020;-52
2021/08/12 08:04:27;;;;;;;17.42;7.68;;;;;;;;;;143738;573;46010;-51
2021/08/12 08:06:54;;;;;;;11.18;7.45;;;;;;;;;;143732;589;47021;-52
2021/08/12 08:09:21;;;;;;;10.20;7.40;;;;;;;;;;143734;574;46010;-51
2021/08/12 08:11:48;;;;;;;9.80;7.18;;;;;;;;;;143734;624;45020;-51
2021/08/12 08:14:15;;;;;;;17.50;8.23;;;;;;;;;;143736;615;46021;-52
2021/08/12 08:16:43;;;;;;;15.23;7.70;;;;;;;;;;143731;569;47041;-51
2021/08/12 08:19:10;;;;;;;9.43;6.55;;;;;;;;;;143734;583;46010;-52
2021/08/12 08:21:39;;;;;;;14.82;6.78;;;;;;;;;;143734;572;45021;-51
2021/08/12 08:24:07;;;;;;;12.68;7.93;;;;;;;;;;143738;594;46020;-52
2021/08/12 08:26:34;;;;;;;12.90;7.57;;;;;;;;;;143732;591;47020;-52
2021/08/12 08:29:01;;;;;;;13.07;7.43;;;;;;;;;;143733;613;46010;-51
2021/08/12 08:31:28;;;;;;;19.35;7.72;;;;;;;;;;143735;566;45020;-51
2021/08/12 08:33:57;;;;;;;12.10;7.00;;;;;;;;;;143735;585;46020;-51
2021/08/12 08:36:25;;;;;;;11.55;7.07;;;;;;;;;;143732;566;47021;-52
2021/08/12 08:38:52;;;;;;;10.20;6.82;;;;;;;;;;143733;590;47919;-51
2021/08/12 08:41:20;;;;;;;10.35;6.97;;;;;;;;;;143735;595;45020;-52
2021/08/12 08:43:51;;;;;;;8.57;6.20;;;;;;;;;;143737;617;46021;-51
2021/08/12 08:46:20;;;;;;;15.88;7.03;;;;;;;;;;143732;581;47020;-52
2021/08/12 08:48:49;;;;;;;10.65;6.90;;;;;;;;;;143734;577;46020;-52
2021/08/12 08:51:15;;;;;;;11.77;7.57;;;;;;;;;;143735;574;45021;-51
2021/08/12 08:53:44;;;;;;;9.88;6.57;;;;;;;;;;143739;580;46020;-51
2021/08/12 08:56:11;;;;;;;14.48;6.95;;;;;;;;;;143733;569;47020;-52
2021/08/12 08:58:40;;;;;;;13.52;7.75;;;;;;;;;;143733;627;47017;-51
2021/08/12 09:01:07;;;;;;;12.32;6.57;;;;;;;;;;143734;594;45020;-51
2021/08/12 09:03:34;;;;;;;12.35;7.37;;;;;;;;;;143737;598;46020;-52
2021/08/12 09:06:01;;;;;;;12.88;6.60;;;;;;;;;;143733;613;47021;-51
2021/08/12 09:08:31;;;;;;;8.80;6.40;;;;;;;;;;143735;597;46010;-52
2021/08/12 09:10:57;;;;;;;12.37;6.93;;;;;;;;;;143735;626;45020;-51
2021/08/12 09:13:24;;;;;;;11.25;6.70;;;;;;;;;;143737;570;46021;-51
2021/08/12 09:15:51;;;;;;;15.45;6.43;;;;;;;;;;143733;605;47020;-51
2021/08/12 09:18:21;;;;;;;11.95;6.72;;;;;;;;;;143732;622;47010;-51
2021/08/12 09:20:49;;;;;;;10.73;6.43;;;;;;;;;;143734;585;45021;-52
2021/08/12 09:23:36;;;;;;;9.98;6.45;;;;;;;;;;143738;631;46010;-51
2021/08/12 09:26:19;;;;;;;8.20;6.10;;;;;;;;;;143732;586;47024;-52
2021/08/12 09:28:46;;;;;;;9.02;6.43;;;;;;;;;;143734;596;46010;-52
2021/08/12 09:31:13;;;;;;;11.43;6.35;;;;;;;;;;143734;585;46012;-51
2021/08/12 09:33:53;;;;;;;9.60;6.15;;;;;;;;;;143738;641;46020;-51
2021/08/12 09:36:39;;;;;;;10.35;7.05;;;;;;;;;;143734;566;47020;-52
2021/08/12 09:39:19;;;;;;;10.65;6.50;;;;;;;;;;143734;595;46010;-52
2021/08/12 09:41:52;;;;;;;14.98;6.82;;;;;;;;;;143732;586;45021;-52
2021/08/12 09:44:53;;;;;;;10.17;6.30;;;;;;;;;;143735;592;48021;-52
2021/08/12 09:47:30;;;;;;;9.65;6.87;;;;;;;;;;143731;587;47020;-53
2021/08/12 09:50:01;;;;;;;11.20;6.47;;;;;;;;;;143734;620;46010;-53
2021/08/12 09:52:37;;;;;;;12.37;6.45;;;;;;;;;;143734;604;45021;-53
2021/08/12 09:55:18;;;;;;;11.77;6.70;;;;;;;;;;143738;564;46010;-53
2021/08/12 09:58:10;;;;;;;13.30;6.60;;;;;;;;;;143734;606;47021;-52
2021/08/12 10:00:39;;;;;;;11.50;6.53;;;;;;;;;;143733;570;46010;-53
2021/08/12 10:03:31;;;;;;;10.10;5.82;;;;;;;;;;143734;599;45020;-52
2021/08/12 10:06:04;;;;;;;10.63;5.87;;;;;;;;;;143736;662;47012;-52
2021/08/12 10:08:34;;;;;;;13.77;6.30;;;;;;;;;;143733;638;47020;-53
2021/08/12 10:11:25;;;;;;;11.65;6.10;;;;;;;;;;143734;609;46010;-53
2021/08/12 10:13:55;;;;;;;8.20;6.05;;;;;;;;;;143734;570;45021;-53
2021/08/12 10:16:22;;;;;;;9.30;6.28;;;;;;;;;;143737;582;46018;-53
2021/08/12 10:18:50;;;;;;;15.85;6.50;;;;;;;;;;143731;580;47020;-53
2021/08/12 10:21:19;;;;;;;9.70;6.03;;;;;;;;;;143734;586;46010;-53
2021/08/12 10:23:52;;;;;;;7.93;6.00;;;;;;;;;;143737;594;45020;-53
2021/08/12 10:26:20;;;;;;;8.85;6.03;;;;;;;;;;143738;597;46020;-52
2021/08/12 10:28:51;;;;;;;10.65;6.50;;;;;;;;;;143732;649;47021;-53
2021/08/12 10:31:25;;;;;;;10.48;6.30;;;;;;;;;;143736;580;47010;-53
2021/08/12 10:33:52;;;;;;;7.35;5.85;;;;;;;;;;143734;577;45021;-54
2021/08/12 10:36:20;;;;;;;8.20;6.15;;;;;;;;;;143738;612;46010;-53
2021/08/12 10:38:47;;;;;;;9.30;6.53;;;;;;;;;;143732;569;47022;-53
2021/08/12 10:41:16;;;;;;;10.52;5.93;;;;;;;;;;143734;603;46010;-54
2021/08/12 10:43:46;;;;;;;10.50;5.85;;;;;;;;;;143734;617;45021;-53
2021/08/12 10:46:30;;;;;;;11.02;6.55;;;;;;;;;;143737;658;46020;-54
2021/08/12 10:49:42;;;;;;;11.55;6.35;;;;;;;;;;143732;618;47021;-53
2021/08/12 10:52:11;;;;;;;10.15;6.30;;;;;;;;;;143732;631;46920;-53
2021/08/12 10:54:39;;;;;;;8.27;5.82;;;;;;;;;;143732;593;46020;-53
2021/08/12 10:57:23;;;;;;;8.40;5.80;;;;;;;;;;143736;626;46020;-53
2021/08/12 10:59:50;;;;;;;;;;;;;;;;;;143739;982;45023;-53
2021/08/12 11:02:48;;;;;;;9.35;6.40;;;;;;;;;;143739;569;46010;-53
2021/08/12 11:05:15;;;;;;;6.70;5.35;;;;;;;;;;143734;608;45021;-53
2021/08/12 11:07:51;;;;;;;11.27;5.97;;;;;;;;;;143737;588;46020;-53
2021/08/12 11:10:19;;;;;;;10.93;6.28;;;;;;;;;;143733;638;47020;-53
2021/08/12 11:13:31;;;;;;;6.80;5.55;;;;;;;;;;143733;634;47010;-53
2021/08/12 11:15:59;;;;;;;10.20;6.18;;;;;;;;;;143733;639;45022;-53
2021/08/12 11:18:53;;;;;;;8.75;5.87;;;;;;;;;;143737;606;46012;-53
2021/08/12 11:21:51;;;;;;;10.43;5.62;;;;;;;;;;143733;579;47021;-53
2021/08/12 11:24:49;;;;;;;11.95;6.18;;;;;;;;;;143732;572;47010;-53
2021/08/12 11:27:33;;;;;;;10.00;6.10;;;;;;;;;;143732;588;45022;-53
2021/08/12 11:30:38;;;;;;;12.55;5.95;;;;;;;;;;143737;590;46012;-53
2021/08/12 11:33:27;;;;;;;11.43;6.75;;;;;;;;;;143731;605;47020;-53
2021/08/12 11:36:11;;;;;;;13.40;5.70;;;;;;;;;;143734;639;46010;-54
2021/08/12 11:38:49;;;;;;;9.57;6.25;;;;;;;;;;143732;622;45020;-53
2021/08/12 11:41:19;;;;;;;9.52;6.00;;;;;;;;;;143737;575;46012;-53
2021/08/12 11:43:48;;;;;;;8.10;5.97;;;;;;;;;;143732;572;47020;-53
2021/08/12 11:46:15;;;;;;;8.43;6.22;;;;;;;;;;143734;632;46010;-52
2021/08/12 11:48:43;;;;;;;11.30;6.22;;;;;;;;;;143733;631;45021;-52
2021/08/12 11:51:10;;;;;;;8.35;6.10;;;;;;;;;;143737;605;46012;-52
2021/08/12 11:53:48;;;;;;;10.73;6.12;;;;;;;;;;143732;673;47022;-53
2021/08/12 11:56:27;;;;;;;8.75;5.93;;;;;;;;;;143734;660;46011;-53
2021/08/12 11:58:58;;;;;;;10.23;6.25;;;;;;;;;;143734;573;45021;-53
2021/08/12 12:01:27;;;;;;;11.85;6.55;;;;;;;;;;143738;611;46012;-52
2021/08/12 12:04:08;;;;;;;8.98;5.60;;;;;;;;;;143734;579;47034;-52
2021/08/12 12:06:42;;;;;;;10.68;6.12;;;;;;;;;;143734;591;46010;-53
2021/08/12 12:09:34;;;;;;;9.63;6.07;;;;;;;;;;143733;564;46014;-51
2021/08/12 12:12:07;;;;;;;7.55;5.95;;;;;;;;;;143738;620;46013;-53
2021/08/12 12:14:37;;;;;;;10.07;6.18;;;;;;;;;;143732;578;47022;-53
2021/08/12 12:17:22;;;;;;;6.90;5.65;;;;;;;;;;143731;578;48010;-52
2021/08/12 12:20:10;;;;;;;8.25;6.05;;;;;;;;;;143734;621;45021;-54
2021/08/12 12:22:40;;;;;;;11.35;6.28;;;;;;;;;;143736;625;47012;-53
2021/08/12 12:25:09;;;;;;;8.85;6.15;;;;;;;;;;143732;612;47021;-54
2021/08/12 12:27:36;;;;;;;9.98;6.43;;;;;;;;;;143731;578;47011;-53
2021/08/12 12:30:12;;;;;;;11.18;5.95;;;;;;;;;;143734;575;45020;-53
2021/08/12 12:32:41;;;;;;;8.00;5.78;;;;;;;;;;143736;601;47012;-52
2021/08/12 12:35:09;;;;;;;10.77;6.05;;;;;;;;;;143734;587;47021;-52
2021/08/12 12:37:37;;;;;;;12.00;6.30;;;;;;;;;;143734;589;46010;-52
2021/08/12 12:40:07;;;;;;;8.10;5.93;;;;;;;;;;143733;589;45020;-53
2021/08/12 12:42:36;;;;;;;8.25;5.75;;;;;;;;;;143736;585;46013;-52
2021/08/12 12:45:11;;;;;;;11.02;6.30;;;;;;;;;;143733;607;47022;-53
2021/08/12 12:47:38;;;;;;;7.72;6.00;;;;;;;;;;143734;689;46010;-52
2021/08/12 12:50:29;;;;;;;14.02;6.07;;;;;;;;;;143735;585;45021;-53
2021/08/12 12:53:05;;;;;;;7.78;6.05;;;;;;;;;;143737;588;46012;-52
2021/08/12 12:55:34;;;;;;;8.68;5.90;;;;;;;;;;143732;626;47022;-52
2021/08/12 12:58:23;;;;;;;9.57;5.82;;;;;;;;;;143734;571;46011;-52
2021/08/12 13:00:58;;;;;;;9.80;5.70;;;;;;;;;;143735;573;45020;-53
2021/08/12 13:03:29;;;;;;;8.65;5.90;;;;;;;;;;143738;622;46012;-53
2021/08/12 13:05:58;;;;;;;9.13;6.30;;;;;;;;;;143732;564;47023;-53
2021/08/12 13:08:34;;;;;;;9.10;5.82;;;;;;;;;;143734;628;46010;-52
2021/08/12 13:11:14;;;;;;;15.65;6.40;;;;;;;;;;143735;583;45021;-52
2021/08/12 13:13:44;;;;;;;8.40;5.90;;;;;;;;;;143738;646;46020;-52
2021/08/12 13:16:12;;;;;;;9.93;5.80;;;;;;;;;;143734;573;47020;-52
2021/08/12 13:18:56;;;;;;;7.57;5.68;;;;;;;;;;143736;593;47010;-53
2021/08/12 13:21:55;;;;;;;9.02;6.10;;;;;;;;;;143736;565;45021;-53
2021/08/12 13:24:43;;;;;;;9.77;6.20;;;;;;;;;;143738;572;46012;-53
2021/08/12 13:27:10;;;;;;;10.13;5.87;;;;;;;;;;143733;595;47021;-53
2021/08/12 13:29:39;;;;;;;7.80;5.72;;;;;;;;;;143734;571;46010;-53
2021/08/12 13:32:13;;;;;;;10.18;5.60;;;;;;;;;;143736;593;45020;-53
2021/08/12 13:34:42;;;;;;;9.48;5.72;;;;;;;;;;143738;569;46013;-53
2021/08/12 13:37:10;;;;;;;7.35;5.68;;;;;;;;;;143734;573;47022;-52
2021/08/12 13:39:37;;;;;;;8.00;5.95;;;;;;;;;;143737;570;46010;-53
2021/08/12 13:42:10;;;;;;;7.80;5.80;;;;;;;;;;143737;592;45021;-53
2021/08/12 13:44:38;;;;;;;9.68;5.78;;;;;;;;;;143739;577;46012;-53
2021/08/12 13:47:07;;;;;;;7.03;5.55;;;;;;;;;;143734;634;47022;-52
2021/08/12 13:49:34;;;;;;;8.15;6.12;;;;;;;;;;143736;637;46010;-53
2021/08/12 13:52:04;;;;;;;10.32;5.85;;;;;;;;;;143737;604;45020;-52
2021/08/12 13:54:32;;;;;;;8.00;5.50;;;;;;;;;;143739;575;47020;-53
2021/08/12 13:56:59;;;;;;;8.25;6.00;;;;;;;;;;143729;641;47023;-54
2021/08/12 13:59:26;;;;;;;10.48;5.85;;;;;;;;;;143735;566;46020;-53
2021/08/12 14:01:54;;;;;;;7.82;5.50;;;;;;;;;;143734;651;45020;-53
2021/08/12 14:04:22;;;;;;;7.87;5.35;;;;;;;;;;143738;600;46012;-53
2021/08/12 14:06:50;;;;;;;7.62;5.72;;;;;;;;;;143734;647;47022;-53
2021/08/12 14:09:18;;;;;;;7.35;5.60;;;;;;;;;;143736;577;46027;-53
2021/08/12 14:11:46;;;;;;;9.38;6.00;;;;;;;;;;143736;633;46018;-53
2021/08/12 14:14:14;;;;;;;7.20;5.65;;;;;;;;;;143739;569;46012;-52
2021/08/12 14:16:41;;;;;;;8.52;5.85;;;;;;;;;;143733;578;47022;-53
2021/08/12 14:19:08;;;;;;;9.88;6.03;;;;;;;;;;143734;619;47010;-53
2021/08/12 14:21:35;;;;;;;7.57;5.62;;;;;;;;;;143734;594;45020;-54
2021/08/12 14:24:03;;;;;;;8.05;5.85;;;;;;;;;;143738;648;46012;-53
2021/08/12 14:26:30;;;;;;;8.05;5.60;;;;;;;;;;143734;646;47021;-54
2021/08/12 14:28:57;;;;;;;8.45;5.70;;;;;;;;;;143734;574;47010;-53
2021/08/12 14:31:26;;;;;;;8.65;5.55;;;;;;;;;;143736;690;45020;-53
2021/08/12 14:33:54;;;;;;;8.45;5.40;;;;;;;;;;143739;614;46021;-53
2021/08/12 14:36:21;;;;;;;6.97;5.07;;;;;;;;;;143734;571;47020;-53
2021/08/12 14:38:48;;;;;;;8.48;5.90;;;;;;;;;;143735;659;46010;-53
2021/08/12 14:41:18;;;;;;;9.88;5.82;;;;;;;;;;143735;658;45021;-53
2021/08/12 14:43:46;;;;;;;7.93;5.62;;;;;;;;;;143739;594;46012;-54
2021/08/12 14:46:13;;;;;;;8.57;5.50;;;;;;;;;;143734;643;47020;-53
2021/08/12 14:48:40;;;;;;;9.90;5.70;;;;;;;;;;143736;564;46011;-53
2021/08/12 14:51:07;;;;;;;8.63;5.07;;;;;;;;;;143735;574;45020;-53
2021/08/12 14:53:34;;;;;;;6.95;5.78;;;;;;;;;;143739;591;46012;-53
2021/08/12 14:56:01;;;;;;;7.22;5.68;;;;;;;;;;143735;622;47021;-53
2021/08/12 14:58:28;;;;;;;8.57;5.30;;;;;;;;;;143736;582;46010;-53
2021/08/12 15:00:55;;;;;;;6.47;5.35;;;;;;;;;;143735;565;45020;-54
2021/08/12 15:03:22;;;;;;;10.48;5.85;;;;;;;;;;143738;682;46013;-53
2021/08/12 15:05:50;;;;;;;7.60;4.95;;;;;;;;;;143733;599;47022;-53
2021/08/12 15:08:17;;;;;;;9.65;5.80;;;;;;;;;;143736;608;46010;-53
2021/08/12 15:10:44;;;;;;;8.65;5.65;;;;;;;;;;143734;587;45021;-53
2021/08/12 15:13:11;;;;;;;9.13;5.82;;;;;;;;;;143737;585;46018;-53
2021/08/12 15:15:39;;;;;;;10.88;5.45;;;;;;;;;;143733;682;47022;-53
2021/08/12 15:18:06;;;;;;;7.78;5.43;;;;;;;;;;143737;589;46010;-53
2021/08/12 15:20:34;;;;;;;12.45;5.85;;;;;;;;;;143736;571;45021;-53
2021/08/12 15:23:01;;;;;;;7.75;5.37;;;;;;;;;;143739;584;46012;-53
2021/08/12 15:25:29;;;;;;;7.95;5.30;;;;;;;;;;143734;693;47021;-53
2021/08/12 15:27:56;;;;;;;7.75;5.25;;;;;;;;;;143736;586;46010;-54
2021/08/12 15:30:23;;;;;;;8.32;5.90;;;;;;;;;;143736;627;45020;-53
2021/08/12 15:32:51;;;;;;;7.70;5.22;;;;;;;;;;143739;693;46013;-53
2021/08/12 15:35:18;;;;;;;8.68;5.05;;;;;;;;;;143736;583;47020;-53
2021/08/12 15:37:45;;;;;;;9.35;5.20;;;;;;;;;;143735;576;46010;-53
2021/08/12 15:40:12;;;;;;;7.22;5.12;;;;;;;;;;143735;619;45021;-53
2021/08/12 15:42:39;;;;;;;9.32;5.45;;;;;;;;;;143740;569;46012;-54
2021/08/12 15:45:10;;;;;;;6.78;5.18;;;;;;;;;;143735;598;47020;-53
2021/08/12 15:47:41;;;;;;;7.03;5.25;;;;;;;;;;143735;787;46011;-53
2021/08/12 15:50:10;;;;;;;7.22;5.32;;;;;;;;;;143736;576;45020;-53
2021/08/12 15:52:38;;;;;;;6.80;4.97;;;;;;;;;;143739;625;46020;-53
2021/08/12 15:55:10;;;;;;;6.47;4.97;;;;;;;;;;143736;646;46028;-54
2021/08/12 15:57:38;;;;;;;5.68;5.07;;;;;;;;;;143736;654;46010;-53
2021/08/12 16:00:08;;;;;;;8.60;5.75;;;;;;;;;;143735;563;45020;-54
2021/08/12 16:02:36;;;;;;;10.40;6.03;;;;;;;;;;143739;600;46013;-54
2021/08/12 16:05:05;;;;;;;6.68;5.00;;;;;;;;;;143734;596;47023;-53
2021/08/12 16:07:32;;;;;;;8.77;5.20;;;;;;;;;;143736;590;46010;-54
2021/08/12 16:09:59;;;;;;;6.80;5.20;;;;;;;;;;143736;558;45021;-53
2021/08/12 16:12:26;;;;;;;9.57;5.97;;;;;;;;;;143739;578;46012;-53
2021/08/12 16:14:53;;;;;;;7.90;5.60;;;;;;;;;;143733;584;47020;-54
2021/08/12 16:17:20;;;;;;;7.75;4.93;;;;;;;;;;143736;637;46010;-54
2021/08/12 16:19:47;;;;;;;8.00;5.12;;;;;;;;;;143738;564;45021;-53
2021/08/12 16:22:14;;;;;;;9.43;5.53;;;;;;;;;;143739;593;46012;-53
2021/08/12 16:24:42;;;;;;;6.55;4.95;;;;;;;;;;143734;624;47021;-53
2021/08/12 16:27:09;;;;;;;8.30;5.47;;;;;;;;;;143732;592;47010;-53
2021/08/12 16:29:36;;;;;;;7.78;4.95;;;;;;;;;;143735;653;45020;-53
2021/08/12 16:32:05;;;;;;;6.68;4.95;;;;;;;;;;143739;610;46013;-54
2021/08/12 16:34:32;;;;;;;8.63;5.45;;;;;;;;;;143734;569;47020;-54
2021/08/12 16:36:59;;;;;;;7.60;5.45;;;;;;;;;;143735;607;46010;-53
2021/08/12 16:39:26;;;;;;;5.85;5.03;;;;;;;;;;143734;606;45021;-53
2021/08/12 16:41:53;;;;;;;8.43;5.37;;;;;;;;;;143738;603;46012;-53
2021/08/12 16:44:20;;;;;;;6.00;5.25;;;;;;;;;;143734;569;47022;-53
2021/08/12 16:46:47;;;;;;;6.90;5.40;;;;;;;;;;143736;600;46011;-54
2021/08/12 16:49:14;;;;;;;7.43;5.70;;;;;;;;;;143734;585;45020;-53
2021/08/12 16:51:41;;;;;;;8.43;5.70;;;;;;;;;;143739;576;46012;-53
2021/08/12 16:54:08;;;;;;;7.35;5.78;;;;;;;;;;143736;599;47021;-54
2021/08/12 16:56:36;;;;;;;8.02;5.65;;;;;;;;;;143735;564;46010;-53
2021/08/12 16:59:03;;;;;;;6.25;5.30;;;;;;;;;;143734;600;45020;-53
2021/08/12 17:01:30;;;;;;;8.68;5.50;;;;;;;;;;143738;664;46020;-54
2021/08/12 17:03:57;;;;;;;6.87;5.55;;;;;;;;;;143732;570;48020;-53
2021/08/12 17:06:24;;;;;;;13.23;5.57;;;;;;;;;;143734;569;46010;-54
2021/08/12 17:08:51;;;;;;;7.93;5.93;;;;;;;;;;143736;628;46020;-54
2021/08/12 17:11:18;;;;;;;9.75;5.57;;;;;;;;;;143739;626;46012;-53
2021/08/12 17:13:45;;;;;;;8.48;5.95;;;;;;;;;;143735;579;47020;-53
2021/08/12 17:16:12;;;;;;;9.30;5.75;;;;;;;;;;143735;601;46010;-54
2021/08/12 17:18:40;;;;;;;7.07;5.60;;;;;;;;;;143735;646;45021;-54
2021/08/12 17:21:07;;;;;;;12.25;6.28;;;;;;;;;;143739;628;46020;-54
2021/08/12 17:23:34;;;;;;;9.20;6.03;;;;;;;;;;143736;565;47020;-54
2021/08/12 17:26:01;;;;;;;8.45;5.82;;;;;;;;;;143737;609;46010;-54
2021/08/12 17:28:28;;;;;;;11.50;6.10;;;;;;;;;;143735;689;45020;-54
2021/08/12 17:30:55;;;;;;;7.55;5.75;;;;;;;;;;143739;601;46013;-54
2021/08/12 17:33:22;;;;;;;8.13;5.80;;;;;;;;;;143734;599;47021;-54
2021/08/12 17:35:50;;;;;;;10.55;5.72;;;;;;;;;;143736;572;46010;-54
2021/08/12 17:38:17;;;;;;;9.10;6.12;;;;;;;;;;143736;589;45021;-54
2021/08/12 17:40:44;;;;;;;8.73;6.12;;;;;;;;;;143734;570;48012;-54
2021/08/12 17:43:11;;;;;;;8.10;5.97;;;;;;;;;;143734;564;47020;-54
2021/08/12 17:45:38;;;;;;;10.73;5.72;;;;;;;;;;143737;570;45919;-54
2021/08/12 17:48:06;;;;;;;9.13;5.93;;;;;;;;;;143736;583;45021;-54
2021/08/12 17:50:33;;;;;;;9.25;5.87;;;;;;;;;;143740;593;46020;-54
2021/08/12 17:53:00;;;;;;;11.27;6.22;;;;;;;;;;143734;572;47020;-54
2021/08/12 17:55:28;;;;;;;10.63;5.82;;;;;;;;;;143736;570;46010;-54
2021/08/12 17:57:55;;;;;;;10.13;6.35;;;;;;;;;;143735;567;45020;-54
2021/08/12 18:00:22;;;;;;;7.55;6.05;;;;;;;;;;143739;577;46020;-54
2021/08/12 18:02:50;;;;;;;8.00;6.15;;;;;;;;;;143731;589;47021;-54
2021/08/12 18:05:17;;;;;;;8.32;6.15;;;;;;;;;;143731;585;47010;-54
2021/08/12 18:07:44;;;;;;;8.25;6.18;;;;;;;;;;143734;569;45020;-54
2021/08/12 18:10:11;;;;;;;6.72;5.47;;;;;;;;;;143737;665;46021;-54
2021/08/12 18:12:39;;;;;;;9.85;6.40;;;;;;;;;;143732;569;47020;-54
2021/08/12 18:15:07;;;;;;;8.00;6.10;;;;;;;;;;143734;588;46010;-54
2021/08/12 18:17:33;;;;;;;7.87;5.57;;;;;;;;;;143732;588;46913;-54
2021/08/12 18:20:00;;;;;;;8.80;6.35;;;;;;;;;;143736;719;46012;-54
2021/08/12 18:22:28;;;;;;;9.55;5.97;;;;;;;;;;143733;684;47020;-53
2021/08/12 18:24:56;;;;;;;7.22;6.00;;;;;;;;;;143731;620;47010;-54
2021/08/12 18:27:24;;;;;;;9.80;6.15;;;;;;;;;;143734;601;45020;-54
2021/08/12 18:29:52;;;;;;;8.55;6.15;;;;;;;;;;143737;630;46012;-53
2021/08/12 18:32:19;;;;;;;10.52;6.68;;;;;;;;;;143733;569;47021;-54
2021/08/12 18:34:46;;;;;;;10.15;6.75;;;;;;;;;;143734;565;46010;-54
2021/08/12 18:37:13;;;;;;;9.35;6.62;;;;;;;;;;143732;582;45020;-53
2021/08/12 18:39:40;;;;;;;8.57;6.03;;;;;;;;;;143737;587;46021;-54
2021/08/12 18:42:07;;;;;;;9.85;6.45;;;;;;;;;;143731;622;47020;-53
2021/08/12 18:44:34;;;;;;;9.10;6.15;;;;;;;;;;143733;663;46010;-53
2021/08/12 18:47:01;;;;;;;8.50;6.30;;;;;;;;;;143734;566;45021;-54
2021/08/12 18:49:29;;;;;;;9.68;6.40;;;;;;;;;;143737;569;46012;-53
2021/08/12 18:51:56;;;;;;;9.85;6.35;;;;;;;;;;143732;593;47020;-54
2021/08/12 18:54:23;;;;;;;10.38;6.60;;;;;;;;;;143735;581;46010;-54
2021/08/12 18:56:51;;;;;;;9.90;6.85;;;;;;;;;;143734;670;45020;-53
2021/08/12 18:59:18;;;;;;;10.10;6.45;;;;;;;;;;143737;577;46020;-54
2021/08/12 19:01:45;;;;;;;12.43;7.15;;;;;;;;;;143731;614;47022;-53
2021/08/12 19:04:12;;;;;;;7.65;5.93;;;;;;;;;;143734;609;46010;-53
2021/08/12 19:06:39;;;;;;;9.75;6.85;;;;;;;;;;143734;647;45020;-53
2021/08/12 19:09:06;;;;;;;9.65;6.43;;;;;;;;;;143737;609;46013;-53
2021/08/12 19:11:34;;;;;;;11.93;6.55;;;;;;;;;;143732;668;47020;-54
2021/08/12 19:14:01;;;;;;;10.13;7.05;;;;;;;;;;143731;573;47031;-53
2021/08/12 19:16:28;;;;;;;9.43;6.95;;;;;;;;;;143731;572;46021;-53
2021/08/12 19:18:56;;;;;;;6.93;5.80;;;;;;;;;;143736;582;46012;-53
2021/08/12 19:21:23;;;;;;;13.65;6.95;;;;;;;;;;143731;631;47022;-53
2021/08/12 19:23:50;;;;;;;8.80;5.97;;;;;;;;;;143734;600;46010;-53
2021/08/12 19:26:17;;;;;;;8.65;6.20;;;;;;;;;;143734;566;45021;-53
2021/08/12 19:28:44;;;;;;;11.77;7.00;;;;;;;;;;143737;565;46020;-54
2021/08/12 19:31:11;;;;;;;9.18;6.97;;;;;;;;;;143734;620;47021;-54
2021/08/12 19:33:38;;;;;;;14.82;7.35;;;;;;;;;;143732;624;47010;-53
2021/08/12 19:36:05;;;;;;;8.90;7.10;;;;;;;;;;143734;577;45020;-53
2021/08/12 19:38:33;;;;;;;12.07;7.00;;;;;;;;;;143737;607;46013;-53
2021/08/12 19:41:00;;;;;;;12.82;6.45;;;;;;;;;;143733;577;47020;-53
2021/08/12 19:43:27;;;;;;;8.18;6.68;;;;;;;;;;143731;634;47018;-53
2021/08/12 19:45:54;;;;;;;12.52;6.70;;;;;;;;;;143734;564;46010;-54
2021/08/12 19:48:21;;;;;;;13.68;7.28;;;;;;;;;;143737;571;46020;-53
2021/08/12 19:50:51;;;;;;;10.02;7.10;;;;;;;;;;143732;621;47020;-53
2021/08/12 19:53:21;;;;;;;9.38;6.50;;;;;;;;;;143734;609;46011;-54
2021/08/12 19:55:49;;;;;;;13.35;6.80;;;;;;;;;;143735;636;45020;-53
2021/08/12 19:58:17;;;;;;;12.02;6.82;;;;;;;;;;143737;565;46020;-53
2021/08/12 20:00:44;;;;;;;9.38;7.00;;;;;;;;;;143732;606;47022;-53
2021/08/12 20:03:11;;;;;;;9.15;6.80;;;;;;;;;;143735;569;46010;-53
2021/08/12 20:05:38;;;;;;;9.45;7.10;;;;;;;;;;143733;603;46014;-53
2021/08/12 20:08:05;;;;;;;9.82;6.50;;;;;;;;;;143736;566;46020;-53
2021/08/12 20:10:32;;;;;;;8.75;6.68;;;;;;;;;;143733;574;47020;-53
2021/08/12 20:13:00;;;;;;;8.75;6.90;;;;;;;;;;143734;587;46010;-53
2021/08/12 20:15:27;;;;;;;9.40;6.78;;;;;;;;;;143732;564;45021;-53
2021/08/12 20:17:54;;;;;;;9.10;6.90;;;;;;;;;;143736;599;47021;-53
2021/08/12 20:20:21;;;;;;;7.97;6.45;;;;;;;;;;143731;566;47020;-53
2021/08/12 20:22:48;;;;;;;8.43;6.65;;;;;;;;;;143733;589;46010;-53
2021/08/12 20:25:15;;;;;;;9.70;6.57;;;;;;;;;;143733;574;45021;-52
2021/08/12 20:27:42;;;;;;;9.70;7.18;;;;;;;;;;143737;578;46012;-53
2021/08/12 20:30:10;;;;;;;10.63;7.30;;;;;;;;;;143730;594;49022;-53
2021/08/12 20:32:38;;;;;;;9.93;6.65;;;;;;;;;;143734;569;46010;-52
2021/08/12 20:35:05;;;;;;;11.02;7.62;;;;;;;;;;143734;579;45020;-53
2021/08/12 20:37:32;;;;;;;10.73;6.65;;;;;;;;;;143737;571;46012;-53
2021/08/12 20:40:00;;;;;;;10.60;6.82;;;;;;;;;;143732;577;47023;-52
2021/08/12 20:42:27;;;;;;;8.00;6.95;;;;;;;;;;143733;605;46010;-52
2021/08/12 20:44:54;;;;;;;12.82;7.90;;;;;;;;;;143736;590;45021;-52
2021/08/12 20:47:21;;;;;;;8.65;7.03;;;;;;;;;;143736;574;46012;-53
2021/08/12 20:49:48;;;;;;;12.37;7.70;;;;;;;;;;143733;603;47020;-53
2021/08/12 20:52:15;;;;;;;12.25;7.60;;;;;;;;;;143733;578;47010;-53
2021/08/12 20:54:42;;;;;;;11.30;7.53;;;;;;;;;;143732;617;45021;-52
2021/08/12 20:57:09;;;;;;;17.17;7.70;;;;;;;;;;143737;607;46012;-53
2021/08/12 20:59:36;;;;;;;9.32;7.28;;;;;;;;;;143731;598;47022;-53
2021/08/12 21:02:04;;;;;;;13.70;8.30;;;;;;;;;;143734;587;46010;-53
2021/08/12 21:04:31;;;;;;;11.48;7.68;;;;;;;;;;143733;721;46018;-52
2021/08/12 21:06:58;;;;;;;9.98;7.25;;;;;;;;;;143734;587;47012;-53
2021/08/12 21:09:25;;;;;;;10.20;7.57;;;;;;;;;;143733;584;47020;-53
2021/08/12 21:11:52;;;;;;;11.73;8.15;;;;;;;;;;143733;575;46029;-53
2021/08/12 21:14:19;;;;;;;10.38;7.12;;;;;;;;;;143733;596;45021;-53
2021/08/12 21:16:46;;;;;;;11.20;7.72;;;;;;;;;;143737;574;46012;-52
2021/08/12 21:19:14;;;;;;;10.20;7.47;;;;;;;;;;143731;579;47022;-53
2021/08/12 21:21:41;;;;;;;11.57;7.50;;;;;;;;;;143733;608;46023;-53
2021/08/12 21:24:08;;;;;;;10.75;7.85;;;;;;;;;;143734;598;45021;-52
2021/08/12 21:26:35;;;;;;;10.02;7.43;;;;;;;;;;143736;576;46020;-52